sensor_id;sensor_type;location;lat;lon;timestamp;P1;durP1;ratioP1;P2;durP2;ratioP2
32365;SDS011;18837;46.832;16.838;2023-05-06T00:00:34;4.20;;;3.80;;
32365;SDS011;18837;46.832;16.838;2023-05-06T00:03:01;5.40;;;4.50;;
32365;SDS011;18837;46.832;16.838;2023-05-06T00:05:27;4.60;;;4.20;;
32365;SDS011;18837;46.832;16.838;2023-05-06T00:07:53;4.27;;;3.87;;
32365;SDS011;18837;46.832;16.838;2023-05-06T00:10:19;4.50;;;4.10;;
32365;SDS011;18837;46.832;16.838;2023-05-06T00:12:46;4.80;;;4.27;;
32365;SDS011;18837;46.832;16.838;2023-05-06T00:15:12;4.80;;;4.40;;
32365;SDS011;18837;46.832;16.838;2023-05-06T00:17:38;5.07;;;4.57;;
32365;SDS011;18837;46.832;16.838;2023-05-06T00:20:04;5.03;;;4.53;;
32365;SDS011;18837;46.832;16.838;2023-05-06T00:22:30;4.53;;;4.00;;
32365;SDS011;18837;46.832;16.838;2023-05-06T00:24:56;4.90;;;4.40;;
32365;SDS011;18837;46.832;16.838;2023-05-06T00:27:21;6.50;;;4.40;;
32365;SDS011;18837;46.832;16.838;2023-05-06T00:29:47;6.60;;;4.63;;
32365;SDS011;18837;46.832;16.838;2023-05-06T00:32:13;6.13;;;4.13;;
32365;SDS011;18837;46.832;16.838;2023-05-06T00:34:39;5.33;;;4.40;;
32365;SDS011;18837;46.832;16.838;2023-05-06T00:37:04;5.33;;;4.27;;
32365;SDS011;18837;46.832;16.838;2023-05-06T00:39:30;6.50;;;4.27;;
32365;SDS011;18837;46.832;16.838;2023-05-06T00:41:59;5.23;;;4.53;;
32365;SDS011;18837;46.832;16.838;2023-05-06T00:44:28;4.53;;;4.13;;
32365;SDS011;18837;46.832;16.838;2023-05-06T00:46:54;7.23;;;4.40;;
32365;SDS011;18837;46.832;16.838;2023-05-06T00:49:21;4.83;;;4.37;;
32365;SDS011;18837;46.832;16.838;2023-05-06T00:51:47;4.53;;;4.13;;
32365;SDS011;18837;46.832;16.838;2023-05-06T00:54:13;6.43;;;4.50;;
32365;SDS011;18837;46.832;16.838;2023-05-06T00:56:39;4.73;;;4.33;;
32365;SDS011;18837;46.832;16.838;2023-05-06T00:59:05;4.43;;;4.03;;
32365;SDS011;18837;46.832;16.838;2023-05-06T01:01:31;4.83;;;4.43;;
32365;SDS011;18837;46.832;16.838;2023-05-06T01:03:58;5.33;;;4.73;;
32365;SDS011;18837;46.832;16.838;2023-05-06T01:06:34;4.90;;;4.20;;
32365;SDS011;18837;46.832;16.838;2023-05-06T01:09:10;4.70;;;4.30;;
32365;SDS011;18837;46.832;16.838;2023-05-06T01:11:49;5.40;;;4.00;;
32365;SDS011;18837;46.832;16.838;2023-05-06T01:14:39;5.73;;;4.10;;
32365;SDS011;18837;46.832;16.838;2023-05-06T01:17:13;4.90;;;4.40;;
32365;SDS011;18837;46.832;16.838;2023-05-06T01:19:51;4.63;;;4.23;;
32365;SDS011;18837;46.832;16.838;2023-05-06T01:22:22;3.90;;;3.60;;
32365;SDS011;18837;46.832;16.838;2023-05-06T01:24:50;5.37;;;4.30;;
32365;SDS011;18837;46.832;16.838;2023-05-06T01:27:16;4.50;;;4.10;;
32365;SDS011;18837;46.832;16.838;2023-05-06T01:29:43;4.90;;;4.40;;
32365;SDS011;18837;46.832;16.838;2023-05-06T01:35:20;6.63;;;4.63;;
32365;SDS011;18837;46.832;16.838;2023-05-06T01:40:30;4.13;;;3.73;;
32365;SDS011;18837;46.832;16.838;2023-05-06T01:43:00;4.57;;;4.13;;
32365;SDS011;18837;46.832;16.838;2023-05-06T01:45:29;4.87;;;4.23;;
32365;SDS011;18837;46.832;16.838;2023-05-06T01:47:58;4.77;;;4.30;;
32365;SDS011;18837;46.832;16.838;2023-05-06T01:50:24;4.43;;;4.03;;
32365;SDS011;18837;46.832;16.838;2023-05-06T01:52:57;4.33;;;3.90;;
32365;SDS011;18837;46.832;16.838;2023-05-06T01:55:24;4.20;;;3.80;;
32365;SDS011;18837;46.832;16.838;2023-05-06T01:57:49;4.80;;;4.40;;
32365;SDS011;18837;46.832;16.838;2023-05-06T02:00:15;4.27;;;3.87;;
32365;SDS011;18837;46.832;16.838;2023-05-06T02:02:41;4.53;;;4.13;;
32365;SDS011;18837;46.832;16.838;2023-05-06T02:05:07;4.47;;;4.07;;
32365;SDS011;18837;46.832;16.838;2023-05-06T02:07:33;4.97;;;4.30;;
32365;SDS011;18837;46.832;16.838;2023-05-06T02:09:58;4.30;;;3.90;;
32365;SDS011;18837;46.832;16.838;2023-05-06T02:12:24;4.70;;;4.23;;
32365;SDS011;18837;46.832;16.838;2023-05-06T02:14:50;4.50;;;4.07;;
32365;SDS011;18837;46.832;16.838;2023-05-06T02:17:15;4.63;;;4.20;;
32365;SDS011;18837;46.832;16.838;2023-05-06T02:19:41;4.23;;;3.83;;
32365;SDS011;18837;46.832;16.838;2023-05-06T02:22:07;4.10;;;3.80;;
32365;SDS011;18837;46.832;16.838;2023-05-06T02:24:32;4.37;;;3.97;;
32365;SDS011;18837;46.832;16.838;2023-05-06T02:27:01;4.53;;;4.13;;
32365;SDS011;18837;46.832;16.838;2023-05-06T02:29:28;4.57;;;4.17;;
32365;SDS011;18837;46.832;16.838;2023-05-06T02:31:53;4.70;;;4.20;;
32365;SDS011;18837;46.832;16.838;2023-05-06T02:34:20;5.73;;;4.13;;
32365;SDS011;18837;46.832;16.838;2023-05-06T02:36:45;4.50;;;4.13;;
32365;SDS011;18837;46.832;16.838;2023-05-06T02:39:11;4.57;;;4.17;;
32365;SDS011;18837;46.832;16.838;2023-05-06T02:41:37;6.10;;;3.90;;
32365;SDS011;18837;46.832;16.838;2023-05-06T02:44:02;4.27;;;3.87;;
32365;SDS011;18837;46.832;16.838;2023-05-06T02:46:28;4.40;;;4.00;;
32365;SDS011;18837;46.832;16.838;2023-05-06T02:48:54;4.03;;;3.73;;
32365;SDS011;18837;46.832;16.838;2023-05-06T02:51:20;4.13;;;3.83;;
32365;SDS011;18837;46.832;16.838;2023-05-06T02:53:46;5.10;;;4.40;;
32365;SDS011;18837;46.832;16.838;2023-05-06T02:56:11;4.80;;;4.40;;
32365;SDS011;18837;46.832;16.838;2023-05-06T02:58:37;5.40;;;3.93;;
32365;SDS011;18837;46.832;16.838;2023-05-06T03:01:03;4.57;;;4.03;;
32365;SDS011;18837;46.832;16.838;2023-05-06T03:03:28;4.60;;;4.20;;
32365;SDS011;18837;46.832;16.838;2023-05-06T03:05:54;4.73;;;4.03;;
32365;SDS011;18837;46.832;16.838;2023-05-06T03:08:20;4.40;;;4.00;;
32365;SDS011;18837;46.832;16.838;2023-05-06T03:10:46;4.43;;;4.07;;
32365;SDS011;18837;46.832;16.838;2023-05-06T03:13:11;4.43;;;4.03;;
32365;SDS011;18837;46.832;16.838;2023-05-06T03:15:37;4.53;;;3.90;;
32365;SDS011;18837;46.832;16.838;2023-05-06T03:18:03;3.90;;;3.57;;
32365;SDS011;18837;46.832;16.838;2023-05-06T03:20:29;4.57;;;4.10;;
32365;SDS011;18837;46.832;16.838;2023-05-06T03:22:54;4.30;;;3.90;;
32365;SDS011;18837;46.832;16.838;2023-05-06T03:25:20;4.47;;;4.07;;
32365;SDS011;18837;46.832;16.838;2023-05-06T03:27:46;4.57;;;3.93;;
32365;SDS011;18837;46.832;16.838;2023-05-06T03:30:12;6.03;;;4.00;;
32365;SDS011;18837;46.832;16.838;2023-05-06T03:32:38;4.47;;;4.03;;
32365;SDS011;18837;46.832;16.838;2023-05-06T03:35:03;4.90;;;4.40;;
32365;SDS011;18837;46.832;16.838;2023-05-06T03:37:32;4.33;;;3.93;;
32365;SDS011;18837;46.832;16.838;2023-05-06T03:39:57;5.73;;;4.37;;
32365;SDS011;18837;46.832;16.838;2023-05-06T03:42:24;4.50;;;4.10;;
32365;SDS011;18837;46.832;16.838;2023-05-06T03:44:50;4.50;;;4.10;;
32365;SDS011;18837;46.832;16.838;2023-05-06T03:47:16;4.43;;;4.07;;
32365;SDS011;18837;46.832;16.838;2023-05-06T03:49:42;4.63;;;4.17;;
32365;SDS011;18837;46.832;16.838;2023-05-06T03:52:07;4.70;;;4.30;;
32365;SDS011;18837;46.832;16.838;2023-05-06T03:54:33;4.50;;;4.10;;
32365;SDS011;18837;46.832;16.838;2023-05-06T03:56:59;4.70;;;4.30;;
32365;SDS011;18837;46.832;16.838;2023-05-06T03:59:25;4.30;;;3.90;;
32365;SDS011;18837;46.832;16.838;2023-05-06T04:01:51;4.67;;;4.03;;
32365;SDS011;18837;46.832;16.838;2023-05-06T04:04:16;4.50;;;4.10;;
32365;SDS011;18837;46.832;16.838;2023-05-06T04:06:42;4.60;;;4.20;;
32365;SDS011;18837;46.832;16.838;2023-05-06T04:09:08;5.20;;;4.20;;
32365;SDS011;18837;46.832;16.838;2023-05-06T04:11:34;4.50;;;4.10;;
32365;SDS011;18837;46.832;16.838;2023-05-06T04:14:00;4.80;;;4.37;;
32365;SDS011;18837;46.832;16.838;2023-05-06T04:16:25;4.60;;;4.00;;
32365;SDS011;18837;46.832;16.838;2023-05-06T04:18:51;4.73;;;4.33;;
32365;SDS011;18837;46.832;16.838;2023-05-06T04:21:17;4.60;;;4.20;;
32365;SDS011;18837;46.832;16.838;2023-05-06T04:23:43;5.17;;;4.43;;
32365;SDS011;18837;46.832;16.838;2023-05-06T04:26:09;4.63;;;4.10;;
32365;SDS011;18837;46.832;16.838;2023-05-06T04:28:34;4.63;;;4.20;;
32365;SDS011;18837;46.832;16.838;2023-05-06T04:31:00;5.03;;;4.50;;
32365;SDS011;18837;46.832;16.838;2023-05-06T04:33:26;4.53;;;4.13;;
32365;SDS011;18837;46.832;16.838;2023-05-06T04:35:53;4.50;;;4.10;;
32365;SDS011;18837;46.832;16.838;2023-05-06T04:38:23;4.93;;;4.43;;
32365;SDS011;18837;46.832;16.838;2023-05-06T04:40:51;5.03;;;4.20;;
32365;SDS011;18837;46.832;16.838;2023-05-06T04:43:16;5.33;;;4.80;;
32365;SDS011;18837;46.832;16.838;2023-05-06T04:45:42;4.50;;;4.10;;
32365;SDS011;18837;46.832;16.838;2023-05-06T04:48:20;4.60;;;4.20;;
32365;SDS011;18837;46.832;16.838;2023-05-06T04:50:47;5.23;;;4.33;;
32365;SDS011;18837;46.832;16.838;2023-05-06T04:53:13;4.63;;;4.23;;
32365;SDS011;18837;46.832;16.838;2023-05-06T04:55:39;5.00;;;4.53;;
32365;SDS011;18837;46.832;16.838;2023-05-06T04:58:05;4.80;;;4.40;;
32365;SDS011;18837;46.832;16.838;2023-05-06T05:00:31;4.83;;;4.43;;
32365;SDS011;18837;46.832;16.838;2023-05-06T05:02:57;5.33;;;3.97;;
32365;SDS011;18837;46.832;16.838;2023-05-06T05:05:23;4.37;;;4.03;;
32365;SDS011;18837;46.832;16.838;2023-05-06T05:07:52;4.60;;;4.20;;
32365;SDS011;18837;46.832;16.838;2023-05-06T05:10:18;4.97;;;4.47;;
32365;SDS011;18837;46.832;16.838;2023-05-06T05:12:44;4.90;;;4.33;;
32365;SDS011;18837;46.832;16.838;2023-05-06T05:15:10;4.87;;;4.47;;
32365;SDS011;18837;46.832;16.838;2023-05-06T05:17:36;5.07;;;4.67;;
32365;SDS011;18837;46.832;16.838;2023-05-06T05:20:02;4.60;;;4.20;;
32365;SDS011;18837;46.832;16.838;2023-05-06T05:22:29;4.80;;;4.30;;
32365;SDS011;18837;46.832;16.838;2023-05-06T05:24:55;5.10;;;4.60;;
32365;SDS011;18837;46.832;16.838;2023-05-06T05:27:21;4.53;;;4.13;;
32365;SDS011;18837;46.832;16.838;2023-05-06T05:29:47;4.80;;;4.40;;
32365;SDS011;18837;46.832;16.838;2023-05-06T05:32:13;6.40;;;4.57;;
32365;SDS011;18837;46.832;16.838;2023-05-06T05:34:46;5.50;;;4.43;;
32365;SDS011;18837;46.832;16.838;2023-05-06T05:37:12;4.87;;;4.40;;
32365;SDS011;18837;46.832;16.838;2023-05-06T05:39:37;4.70;;;4.30;;
32365;SDS011;18837;46.832;16.838;2023-05-06T05:42:03;4.80;;;4.40;;
32365;SDS011;18837;46.832;16.838;2023-05-06T05:44:29;5.20;;;4.80;;
32365;SDS011;18837;46.832;16.838;2023-05-06T05:46:55;5.47;;;4.93;;
32365;SDS011;18837;46.832;16.838;2023-05-06T05:49:21;5.20;;;4.30;;
32365;SDS011;18837;46.832;16.838;2023-05-06T05:51:47;5.60;;;5.10;;
32365;SDS011;18837;46.832;16.838;2023-05-06T05:54:14;5.33;;;4.83;;
32365;SDS011;18837;46.832;16.838;2023-05-06T05:56:40;5.63;;;4.80;;
32365;SDS011;18837;46.832;16.838;2023-05-06T05:59:06;5.00;;;4.60;;
32365;SDS011;18837;46.832;16.838;2023-05-06T06:01:32;4.93;;;4.43;;
32365;SDS011;18837;46.832;16.838;2023-05-06T06:03:58;4.43;;;4.03;;
32365;SDS011;18837;46.832;16.838;2023-05-06T06:06:24;5.00;;;4.60;;
32365;SDS011;18837;46.832;16.838;2023-05-06T06:08:50;5.13;;;4.63;;
32365;SDS011;18837;46.832;16.838;2023-05-06T06:11:16;4.90;;;4.50;;
32365;SDS011;18837;46.832;16.838;2023-05-06T06:13:41;5.37;;;4.87;;
32365;SDS011;18837;46.832;16.838;2023-05-06T06:16:07;5.80;;;5.30;;
32365;SDS011;18837;46.832;16.838;2023-05-06T06:18:34;4.70;;;4.30;;
32365;SDS011;18837;46.832;16.838;2023-05-06T06:21:00;6.50;;;5.10;;
32365;SDS011;18837;46.832;16.838;2023-05-06T06:23:26;5.47;;;4.80;;
32365;SDS011;18837;46.832;16.838;2023-05-06T06:25:51;5.70;;;5.20;;
32365;SDS011;18837;46.832;16.838;2023-05-06T06:28:17;11.97;;;5.57;;
32365;SDS011;18837;46.832;16.838;2023-05-06T06:30:43;6.63;;;5.30;;
32365;SDS011;18837;46.832;16.838;2023-05-06T06:33:09;8.47;;;5.57;;
32365;SDS011;18837;46.832;16.838;2023-05-06T06:35:34;10.70;;;5.70;;
32365;SDS011;18837;46.832;16.838;2023-05-06T06:38:00;5.63;;;5.13;;
32365;SDS011;18837;46.832;16.838;2023-05-06T06:40:26;8.67;;;5.50;;
32365;SDS011;18837;46.832;16.838;2023-05-06T06:42:52;6.23;;;5.27;;
32365;SDS011;18837;46.832;16.838;2023-05-06T06:45:18;6.47;;;4.63;;
32365;SDS011;18837;46.832;16.838;2023-05-06T06:47:44;5.97;;;5.20;;
32365;SDS011;18837;46.832;16.838;2023-05-06T06:50:10;9.70;;;5.53;;
32365;SDS011;18837;46.832;16.838;2023-05-06T06:52:36;5.63;;;5.10;;
32365;SDS011;18837;46.832;16.838;2023-05-06T06:55:02;5.87;;;5.10;;
32365;SDS011;18837;46.832;16.838;2023-05-06T06:57:28;5.57;;;5.03;;
32365;SDS011;18837;46.832;16.838;2023-05-06T06:59:54;5.00;;;4.50;;
32365;SDS011;18837;46.832;16.838;2023-05-06T07:02:20;6.13;;;5.10;;
32365;SDS011;18837;46.832;16.838;2023-05-06T07:04:46;5.57;;;5.07;;
32365;SDS011;18837;46.832;16.838;2023-05-06T07:07:12;5.50;;;5.00;;
32365;SDS011;18837;46.832;16.838;2023-05-06T07:09:38;4.30;;;3.83;;
32365;SDS011;18837;46.832;16.838;2023-05-06T07:12:07;4.77;;;4.37;;
32365;SDS011;18837;46.832;16.838;2023-05-06T07:14:33;5.27;;;4.67;;
32365;SDS011;18837;46.832;16.838;2023-05-06T07:16:59;5.10;;;4.60;;
32365;SDS011;18837;46.832;16.838;2023-05-06T07:19:25;4.50;;;4.17;;
32365;SDS011;18837;46.832;16.838;2023-05-06T07:21:51;4.83;;;4.43;;
32365;SDS011;18837;46.832;16.838;2023-05-06T07:24:17;4.93;;;4.43;;
32365;SDS011;18837;46.832;16.838;2023-05-06T07:26:43;5.37;;;4.90;;
32365;SDS011;18837;46.832;16.838;2023-05-06T07:29:09;5.67;;;4.73;;
32365;SDS011;18837;46.832;16.838;2023-05-06T07:31:35;4.60;;;4.20;;
32365;SDS011;18837;46.832;16.838;2023-05-06T07:34:01;5.10;;;4.60;;
32365;SDS011;18837;46.832;16.838;2023-05-06T07:36:26;4.53;;;4.13;;
32365;SDS011;18837;46.832;16.838;2023-05-06T07:38:53;6.03;;;4.30;;
32365;SDS011;18837;46.832;16.838;2023-05-06T07:41:18;4.73;;;4.30;;
32365;SDS011;18837;46.832;16.838;2023-05-06T07:43:45;5.70;;;4.57;;
32365;SDS011;18837;46.832;16.838;2023-05-06T07:46:11;5.17;;;4.63;;
32365;SDS011;18837;46.832;16.838;2023-05-06T07:48:36;5.07;;;4.57;;
32365;SDS011;18837;46.832;16.838;2023-05-06T07:51:02;5.50;;;4.70;;
32365;SDS011;18837;46.832;16.838;2023-05-06T07:53:28;5.20;;;4.63;;
32365;SDS011;18837;46.832;16.838;2023-05-06T07:55:55;4.67;;;4.27;;
32365;SDS011;18837;46.832;16.838;2023-05-06T07:58:26;5.53;;;4.47;;
32365;SDS011;18837;46.832;16.838;2023-05-06T08:00:53;5.43;;;4.90;;
32365;SDS011;18837;46.832;16.838;2023-05-06T08:03:18;4.90;;;4.50;;
32365;SDS011;18837;46.832;16.838;2023-05-06T08:05:44;5.57;;;5.07;;
32365;SDS011;18837;46.832;16.838;2023-05-06T08:08:11;5.00;;;4.50;;
32365;SDS011;18837;46.832;16.838;2023-05-06T08:10:37;4.93;;;4.53;;
32365;SDS011;18837;46.832;16.838;2023-05-06T08:13:02;5.20;;;4.70;;
32365;SDS011;18837;46.832;16.838;2023-05-06T08:15:28;5.97;;;4.80;;
32365;SDS011;18837;46.832;16.838;2023-05-06T08:17:54;5.80;;;5.30;;
32365;SDS011;18837;46.832;16.838;2023-05-06T08:20:20;5.53;;;5.03;;
32365;SDS011;18837;46.832;16.838;2023-05-06T08:22:45;5.40;;;5.00;;
32365;SDS011;18837;46.832;16.838;2023-05-06T08:25:11;6.00;;;5.40;;
32365;SDS011;18837;46.832;16.838;2023-05-06T08:27:37;5.70;;;5.20;;
32365;SDS011;18837;46.832;16.838;2023-05-06T08:30:03;6.10;;;5.00;;
32365;SDS011;18837;46.832;16.838;2023-05-06T08:32:29;6.00;;;5.43;;
32365;SDS011;18837;46.832;16.838;2023-05-06T08:34:55;4.97;;;4.50;;
32365;SDS011;18837;46.832;16.838;2023-05-06T08:37:21;5.47;;;4.97;;
32365;SDS011;18837;46.832;16.838;2023-05-06T08:39:47;5.73;;;5.23;;
32365;SDS011;18837;46.832;16.838;2023-05-06T08:42:13;5.30;;;4.80;;
32365;SDS011;18837;46.832;16.838;2023-05-06T08:44:39;5.50;;;5.00;;
32365;SDS011;18837;46.832;16.838;2023-05-06T08:47:06;5.67;;;5.00;;
32365;SDS011;18837;46.832;16.838;2023-05-06T08:49:32;5.53;;;4.67;;
32365;SDS011;18837;46.832;16.838;2023-05-06T08:51:58;5.13;;;4.73;;
32365;SDS011;18837;46.832;16.838;2023-05-06T08:54:28;5.80;;;5.30;;
32365;SDS011;18837;46.832;16.838;2023-05-06T08:56:56;5.30;;;4.90;;
32365;SDS011;18837;46.832;16.838;2023-05-06T08:59:24;4.97;;;4.47;;
32365;SDS011;18837;46.832;16.838;2023-05-06T09:01:54;5.37;;;4.70;;
32365;SDS011;18837;46.832;16.838;2023-05-06T09:04:21;5.60;;;5.10;;
32365;SDS011;18837;46.832;16.838;2023-05-06T09:06:47;5.67;;;4.90;;
32365;SDS011;18837;46.832;16.838;2023-05-06T09:09:12;5.17;;;4.77;;
32365;SDS011;18837;46.832;16.838;2023-05-06T09:11:39;5.27;;;4.87;;
32365;SDS011;18837;46.832;16.838;2023-05-06T09:14:14;5.20;;;4.70;;
32365;SDS011;18837;46.832;16.838;2023-05-06T09:16:44;5.20;;;4.70;;
32365;SDS011;18837;46.832;16.838;2023-05-06T09:19:13;5.97;;;5.40;;
32365;SDS011;18837;46.832;16.838;2023-05-06T09:21:40;5.00;;;4.60;;
32365;SDS011;18837;46.832;16.838;2023-05-06T09:24:08;4.93;;;4.43;;
32365;SDS011;18837;46.832;16.838;2023-05-06T09:26:35;4.80;;;4.40;;
32365;SDS011;18837;46.832;16.838;2023-05-06T09:29:02;4.93;;;4.47;;
32365;SDS011;18837;46.832;16.838;2023-05-06T09:31:29;5.20;;;4.70;;
32365;SDS011;18837;46.832;16.838;2023-05-06T09:33:56;5.03;;;4.63;;
32365;SDS011;18837;46.832;16.838;2023-05-06T09:36:24;5.20;;;4.80;;
32365;SDS011;18837;46.832;16.838;2023-05-06T09:38:53;4.73;;;4.33;;
32365;SDS011;18837;46.832;16.838;2023-05-06T09:41:20;5.20;;;4.70;;
32365;SDS011;18837;46.832;16.838;2023-05-06T09:43:50;4.87;;;4.47;;
32365;SDS011;18837;46.832;16.838;2023-05-06T09:46:16;5.23;;;4.77;;
32365;SDS011;18837;46.832;16.838;2023-05-06T09:48:43;4.30;;;4.00;;
32365;SDS011;18837;46.832;16.838;2023-05-06T09:51:10;5.37;;;4.87;;
32365;SDS011;18837;46.832;16.838;2023-05-06T09:53:36;5.03;;;4.63;;
32365;SDS011;18837;46.832;16.838;2023-05-06T09:56:03;4.97;;;4.57;;
32365;SDS011;18837;46.832;16.838;2023-05-06T09:58:30;4.70;;;4.30;;
32365;SDS011;18837;46.832;16.838;2023-05-06T10:00:57;5.07;;;4.40;;
32365;SDS011;18837;46.832;16.838;2023-05-06T10:03:23;4.80;;;4.40;;
32365;SDS011;18837;46.832;16.838;2023-05-06T10:05:50;4.87;;;4.47;;
32365;SDS011;18837;46.832;16.838;2023-05-06T10:08:21;4.23;;;3.93;;
32365;SDS011;18837;46.832;16.838;2023-05-06T10:10:48;4.93;;;4.53;;
32365;SDS011;18837;46.832;16.838;2023-05-06T10:13:15;5.17;;;4.77;;
32365;SDS011;18837;46.832;16.838;2023-05-06T10:15:42;4.57;;;4.17;;
32365;SDS011;18837;46.832;16.838;2023-05-06T10:18:10;4.70;;;4.30;;
32365;SDS011;18837;46.832;16.838;2023-05-06T10:20:41;4.70;;;4.30;;
32365;SDS011;18837;46.832;16.838;2023-05-06T10:25:41;4.73;;;4.30;;
32365;SDS011;18837;46.832;16.838;2023-05-06T10:28:09;4.37;;;3.97;;
32365;SDS011;18837;46.832;16.838;2023-05-06T10:30:37;4.93;;;4.43;;
32365;SDS011;18837;46.832;16.838;2023-05-06T10:33:05;4.23;;;3.93;;
32365;SDS011;18837;46.832;16.838;2023-05-06T10:38:08;4.93;;;4.53;;
32365;SDS011;18837;46.832;16.838;2023-05-06T10:40:47;4.10;;;3.80;;
32365;SDS011;18837;46.832;16.838;2023-05-06T10:46:08;4.50;;;4.10;;
32365;SDS011;18837;46.832;16.838;2023-05-06T10:48:35;4.93;;;4.53;;
32365;SDS011;18837;46.832;16.838;2023-05-06T10:57:25;4.87;;;4.47;;
32365;SDS011;18837;46.832;16.838;2023-05-06T10:59:33;4.77;;;4.37;;
32365;SDS011;18837;46.832;16.838;2023-05-06T11:04:28;5.63;;;5.13;;
32365;SDS011;18837;46.832;16.838;2023-05-06T11:07:05;4.70;;;4.30;;
32365;SDS011;18837;46.832;16.838;2023-05-06T11:09:58;4.20;;;3.90;;
32365;SDS011;18837;46.832;16.838;2023-05-06T11:15:19;4.83;;;4.43;;
32365;SDS011;18837;46.832;16.838;2023-05-06T11:17:48;5.47;;;4.90;;
32365;SDS011;18837;46.832;16.838;2023-05-06T11:20:17;4.80;;;4.40;;
32365;SDS011;18837;46.832;16.838;2023-05-06T11:22:44;5.00;;;4.60;;
32365;SDS011;18837;46.832;16.838;2023-05-06T11:25:10;4.50;;;4.17;;
32365;SDS011;18837;46.832;16.838;2023-05-06T11:27:36;4.20;;;3.90;;
32365;SDS011;18837;46.832;16.838;2023-05-06T11:30:03;4.00;;;3.70;;
32365;SDS011;18837;46.832;16.838;2023-05-06T11:32:29;4.63;;;4.23;;
32365;SDS011;18837;46.832;16.838;2023-05-06T11:34:56;4.13;;;3.83;;
32365;SDS011;18837;46.832;16.838;2023-05-06T11:37:23;4.30;;;3.90;;
32365;SDS011;18837;46.832;16.838;2023-05-06T11:39:50;5.00;;;4.07;;
32365;SDS011;18837;46.832;16.838;2023-05-06T11:42:22;4.50;;;4.13;;
32365;SDS011;18837;46.832;16.838;2023-05-06T11:44:51;4.70;;;4.23;;
32365;SDS011;18837;46.832;16.838;2023-05-06T11:47:21;4.00;;;3.60;;
32365;SDS011;18837;46.832;16.838;2023-05-06T11:49:50;4.17;;;3.87;;
32365;SDS011;18837;46.832;16.838;2023-05-06T11:52:17;4.10;;;3.70;;
32365;SDS011;18837;46.832;16.838;2023-05-06T11:54:49;4.07;;;3.77;;
32365;SDS011;18837;46.832;16.838;2023-05-06T11:57:18;3.73;;;3.43;;
32365;SDS011;18837;46.832;16.838;2023-05-06T11:59:44;4.87;;;4.23;;
32365;SDS011;18837;46.832;16.838;2023-05-06T12:02:11;4.37;;;3.97;;
32365;SDS011;18837;46.832;16.838;2023-05-06T12:07:05;4.27;;;3.77;;
32365;SDS011;18837;46.832;16.838;2023-05-06T12:09:31;3.90;;;3.60;;
32365;SDS011;18837;46.832;16.838;2023-05-06T12:11:58;4.17;;;3.73;;
32365;SDS011;18837;46.832;16.838;2023-05-06T12:14:26;4.50;;;4.10;;
32365;SDS011;18837;46.832;16.838;2023-05-06T12:16:52;3.87;;;3.57;;
32365;SDS011;18837;46.832;16.838;2023-05-06T12:19:19;4.07;;;3.77;;
32365;SDS011;18837;46.832;16.838;2023-05-06T12:21:45;4.47;;;4.07;;
32365;SDS011;18837;46.832;16.838;2023-05-06T12:24:11;4.30;;;3.40;;
32365;SDS011;18837;46.832;16.838;2023-05-06T12:26:47;4.20;;;3.80;;
32365;SDS011;18837;46.832;16.838;2023-05-06T12:29:14;3.70;;;3.40;;
32365;SDS011;18837;46.832;16.838;2023-05-06T12:31:42;4.07;;;3.67;;
32365;SDS011;18837;46.832;16.838;2023-05-06T12:34:10;3.70;;;3.40;;
32365;SDS011;18837;46.832;16.838;2023-05-06T12:36:44;3.90;;;3.60;;
32365;SDS011;18837;46.832;16.838;2023-05-06T12:39:11;4.20;;;3.80;;
32365;SDS011;18837;46.832;16.838;2023-05-06T12:44:50;4.30;;;4.00;;
32365;SDS011;18837;46.832;16.838;2023-05-06T12:46:55;4.63;;;4.20;;
32365;SDS011;18837;46.832;16.838;2023-05-06T12:49:20;3.90;;;3.60;;
32365;SDS011;18837;46.832;16.838;2023-05-06T12:51:46;5.77;;;3.93;;
32365;SDS011;18837;46.832;16.838;2023-05-06T12:54:28;4.27;;;3.87;;
32365;SDS011;18837;46.832;16.838;2023-05-06T12:56:54;4.43;;;4.07;;
32365;SDS011;18837;46.832;16.838;2023-05-06T12:59:20;4.30;;;4.00;;
32365;SDS011;18837;46.832;16.838;2023-05-06T13:01:48;4.63;;;3.70;;
32365;SDS011;18837;46.832;16.838;2023-05-06T13:04:14;3.70;;;3.40;;
32365;SDS011;18837;46.832;16.838;2023-05-06T13:06:40;4.53;;;4.13;;
32365;SDS011;18837;46.832;16.838;2023-05-06T13:09:06;4.90;;;4.00;;
32365;SDS011;18837;46.832;16.838;2023-05-06T13:11:32;5.03;;;3.60;;
32365;SDS011;18837;46.832;16.838;2023-05-06T13:13:58;242.80;;;43.00;;
32365;SDS011;18837;46.832;16.838;2023-05-06T13:16:23;31.50;;;7.43;;
32365;SDS011;18837;46.832;16.838;2023-05-06T13:18:49;26.53;;;7.60;;
32365;SDS011;18837;46.832;16.838;2023-05-06T13:21:16;710.97;;;608.80;;
32365;SDS011;18837;46.832;16.838;2023-05-06T13:23:41;1999.90;;;999.90;;
32365;SDS011;18837;46.832;16.838;2023-05-06T13:26:11;814.63;;;714.17;;
32365;SDS011;18837;46.832;16.838;2023-05-06T13:28:37;511.50;;;455.83;;
32365;SDS011;18837;46.832;16.838;2023-05-06T13:31:06;375.75;;;327.90;;
32365;SDS011;18837;46.832;16.838;2023-05-06T13:33:33;1268.05;;;859.20;;
32365;SDS011;18837;46.832;16.838;2023-05-06T13:35:59;770.47;;;408.90;;
32365;SDS011;18837;46.832;16.838;2023-05-06T13:38:26;316.43;;;224.73;;
32365;SDS011;18837;46.832;16.838;2023-05-06T13:40:52;830.38;;;674.70;;
32365;SDS011;18837;46.832;16.838;2023-05-06T13:43:18;167.98;;;116.72;;
32365;SDS011;18837;46.832;16.838;2023-05-06T13:45:45;134.43;;;93.57;;
32365;SDS011;18837;46.832;16.838;2023-05-06T13:48:14;109.07;;;66.57;;
32365;SDS011;18837;46.832;16.838;2023-05-06T13:50:43;52.93;;;36.07;;
32365;SDS011;18837;46.832;16.838;2023-05-06T13:53:12;31.80;;;22.90;;
32365;SDS011;18837;46.832;16.838;2023-05-06T13:55:38;35.30;;;29.80;;
32365;SDS011;18837;46.832;16.838;2023-05-06T13:58:05;137.87;;;118.10;;
32365;SDS011;18837;46.832;16.838;2023-05-06T14:00:32;66.13;;;50.77;;
32365;SDS011;18837;46.832;16.838;2023-05-06T14:02:58;64.00;;;53.20;;
32365;SDS011;18837;46.832;16.838;2023-05-06T14:05:24;67.47;;;51.63;;
32365;SDS011;18837;46.832;16.838;2023-05-06T14:07:50;62.70;;;47.73;;
32365;SDS011;18837;46.832;16.838;2023-05-06T14:10:17;52.30;;;42.40;;
32365;SDS011;18837;46.832;16.838;2023-05-06T14:12:46;48.80;;;40.10;;
32365;SDS011;18837;46.832;16.838;2023-05-06T14:15:12;44.57;;;37.00;;
32365;SDS011;18837;46.832;16.838;2023-05-06T14:17:40;43.83;;;37.97;;
32365;SDS011;18837;46.832;16.838;2023-05-06T14:20:07;41.00;;;35.87;;
32365;SDS011;18837;46.832;16.838;2023-05-06T14:22:34;41.10;;;35.63;;
32365;SDS011;18837;46.832;16.838;2023-05-06T14:25:04;38.97;;;34.07;;
32365;SDS011;18837;46.832;16.838;2023-05-06T14:27:31;33.63;;;29.53;;
32365;SDS011;18837;46.832;16.838;2023-05-06T14:29:56;32.30;;;27.73;;
32365;SDS011;18837;46.832;16.838;2023-05-06T14:32:22;32.30;;;28.80;;
32365;SDS011;18837;46.832;16.838;2023-05-06T14:34:48;36.03;;;32.23;;
32365;SDS011;18837;46.832;16.838;2023-05-06T14:37:13;38.87;;;31.77;;
32365;SDS011;18837;46.832;16.838;2023-05-06T14:39:39;34.40;;;30.60;;
32365;SDS011;18837;46.832;16.838;2023-05-06T14:42:05;34.37;;;30.47;;
32365;SDS011;18837;46.832;16.838;2023-05-06T14:44:30;24.00;;;21.40;;
32365;SDS011;18837;46.832;16.838;2023-05-06T14:46:56;14.87;;;13.37;;
32365;SDS011;18837;46.832;16.838;2023-05-06T14:49:22;14.80;;;13.50;;
32365;SDS011;18837;46.832;16.838;2023-05-06T14:51:47;13.80;;;12.40;;
32365;SDS011;18837;46.832;16.838;2023-05-06T14:54:14;21.93;;;19.67;;
32365;SDS011;18837;46.832;16.838;2023-05-06T14:56:41;24.87;;;22.27;;
32365;SDS011;18837;46.832;16.838;2023-05-06T14:59:10;25.67;;;23.07;;